sensor_id;sensor_type;location;lat;lon;timestamp;pressure;altitude;pressure_sealevel;temperature;humidity
19447;BME280;9862;49.462;11.054;2023-03-23T00:01:25;97472.91;;;14.80;100.00
19447;BME280;9862;49.462;11.054;2023-03-23T00:03:56;97464.06;;;14.79;100.00
19447;BME280;9862;49.462;11.054;2023-03-23T00:06:24;97473.97;;;14.79;100.00
19447;BME280;9862;49.462;11.054;2023-03-23T00:08:52;97464.53;;;14.76;100.00
19447;BME280;9862;49.462;11.054;2023-03-23T00:11:23;97465.56;;;14.70;100.00
19447;BME280;9862;49.462;11.054;2023-03-23T00:13:57;97473.50;;;14.65;100.00
19447;BME280;9862;49.462;11.054;2023-03-23T00:16:27;97468.41;;;14.64;100.00
19447;BME280;9862;49.462;11.054;2023-03-23T00:18:57;97470.28;;;14.63;100.00
19447;BME280;9862;49.462;11.054;2023-03-23T00:21:25;97467.84;;;14.62;100.00
19447;BME280;9862;49.462;11.054;2023-03-23T00:23:58;97464.63;;;14.59;100.00
19447;BME280;9862;49.462;11.054;2023-03-23T00:26:24;97454.97;;;14.58;100.00
19447;BME280;9862;49.462;11.054;2023-03-23T00:28:55;97458.47;;;14.59;100.00
19447;BME280;9862;49.462;11.054;2023-03-23T00:31:22;97438.66;;;14.60;100.00
19447;BME280;9862;49.462;11.054;2023-03-23T00:33:48;97450.97;;;14.61;100.00
19447;BME280;9862;49.462;11.054;2023-03-23T00:36:15;97433.16;;;14.50;100.00
19447;BME280;9862;49.462;11.054;2023-03-23T00:38:43;97420.72;;;14.44;100.00
19447;BME280;9862;49.462;11.054;2023-03-23T00:41:12;97432.03;;;14.46;100.00
19447;BME280;9862;49.462;11.054;2023-03-23T00:43:40;97427.56;;;14.35;100.00
19447;BME280;9862;49.462;11.054;2023-03-23T00:46:08;97426.91;;;14.44;100.00
19447;BME280;9862;49.462;11.054;2023-03-23T00:48:36;97404.38;;;14.40;100.00
19447;BME280;9862;49.462;11.054;2023-03-23T00:51:06;97415.81;;;14.36;100.00
19447;BME280;9862;49.462;11.054;2023-03-23T00:53:37;97420.34;;;14.35;100.00
19447;BME280;9862;49.462;11.054;2023-03-23T00:56:03;97431.44;;;14.44;100.00
19447;BME280;9862;49.462;11.054;2023-03-23T00:58:30;97429.75;;;14.38;100.00
19447;BME280;9862;49.462;11.054;2023-03-23T01:00:57;97428.13;;;14.37;100.00
19447;BME280;9862;49.462;11.054;2023-03-23T01:03:25;97449.84;;;14.57;100.00
19447;BME280;9862;49.462;11.054;2023-03-23T01:05:53;97447.50;;;14.44;100.00
19447;BME280;9862;49.462;11.054;2023-03-23T01:08:21;97432.66;;;14.36;100.00
19447;BME280;9862;49.462;11.054;2023-03-23T01:10:48;97431.81;;;14.30;100.00
19447;BME280;9862;49.462;11.054;2023-03-23T01:13:15;97434.97;;;14.27;100.00
19447;BME280;9862;49.462;11.054;2023-03-23T01:15:42;97442.44;;;14.25;100.00
19447;BME280;9862;49.462;11.054;2023-03-23T01:18:09;97431.72;;;14.25;100.00
19447;BME280;9862;49.462;11.054;2023-03-23T01:20:37;97428.88;;;14.32;100.00
19447;BME280;9862;49.462;11.054;2023-03-23T01:23:04;97421.81;;;14.26;100.00
19447;BME280;9862;49.462;11.054;2023-03-23T01:25:34;97422.63;;;14.26;100.00
19447;BME280;9862;49.462;11.054;2023-03-23T01:28:01;97420.88;;;14.15;100.00
19447;BME280;9862;49.462;11.054;2023-03-23T01:30:29;97406.84;;;14.08;100.00
19447;BME280;9862;49.462;11.054;2023-03-23T01:32:55;97408.13;;;14.00;100.00
19447;BME280;9862;49.462;11.054;2023-03-23T01:35:22;97413.47;;;14.00;100.00
19447;BME280;9862;49.462;11.054;2023-03-23T01:37:50;97413.28;;;14.07;100.00
19447;BME280;9862;49.462;11.054;2023-03-23T01:40:16;97408.31;;;14.16;100.00
19447;BME280;9862;49.462;11.054;2023-03-23T01:42:43;97408.06;;;14.17;100.00
19447;BME280;9862;49.462;11.054;2023-03-23T01:45:23;97413.50;;;14.22;100.00
19447;BME280;9862;49.462;11.054;2023-03-23T01:47:54;97408.19;;;14.27;100.00
19447;BME280;9862;49.462;11.054;2023-03-23T01:50:23;97404.91;;;14.20;100.00
19447;BME280;9862;49.462;11.054;2023-03-23T01:52:56;97402.28;;;14.25;100.00
19447;BME280;9862;49.462;11.054;2023-03-23T01:55:25;97402.84;;;14.27;100.00
19447;BME280;9862;49.462;11.054;2023-03-23T01:57:54;97406.28;;;14.23;100.00
19447;BME280;9862;49.462;11.054;2023-03-23T02:00:21;97412.53;;;14.28;100.00
19447;BME280;9862;49.462;11.054;2023-03-23T02:02:49;97404.78;;;14.49;100.00
19447;BME280;9862;49.462;11.054;2023-03-23T02:05:20;97402.66;;;14.51;100.00
19447;BME280;9862;49.462;11.054;2023-03-23T02:07:48;97399.31;;;14.44;100.00
19447;BME280;9862;49.462;11.054;2023-03-23T02:10:17;97391.22;;;14.39;100.00
19447;BME280;9862;49.462;11.054;2023-03-23T02:12:44;97396.00;;;14.37;100.00
19447;BME280;9862;49.462;11.054;2023-03-23T02:15:11;97383.19;;;14.39;100.00
19447;BME280;9862;49.462;11.054;2023-03-23T02:17:43;97383.19;;;14.39;100.00
19447;BME280;9862;49.462;11.054;2023-03-23T02:20:29;97388.84;;;14.42;100.00
19447;BME280;9862;49.462;11.054;2023-03-23T02:23:20;97377.19;;;14.48;100.00
19447;BME280;9862;49.462;11.054;2023-03-23T02:25:59;97372.50;;;14.60;100.00
19447;BME280;9862;49.462;11.054;2023-03-23T02:31:31;97365.53;;;14.59;100.00
19447;BME280;9862;49.462;11.054;2023-03-23T02:34:08;97369.03;;;14.60;100.00
19447;BME280;9862;49.462;11.054;2023-03-23T02:36:40;97364.28;;;14.67;100.00
19447;BME280;9862;49.462;11.054;2023-03-23T02:39:13;97361.03;;;14.65;100.00
19447;BME280;9862;49.462;11.054;2023-03-23T02:41:45;97361.66;;;14.72;100.00
19447;BME280;9862;49.462;11.054;2023-03-23T02:44:14;97361.09;;;14.70;100.00
19447;BME280;9862;49.462;11.054;2023-03-23T02:46:42;97351.75;;;14.73;100.00
19447;BME280;9862;49.462;11.054;2023-03-23T02:49:13;97353.59;;;14.67;100.00
19447;BME280;9862;49.462;11.054;2023-03-23T02:51:44;97345.22;;;14.64;100.00
19447;BME280;9862;49.462;11.054;2023-03-23T02:54:14;97360.47;;;14.63;100.00
19447;BME280;9862;49.462;11.054;2023-03-23T02:56:43;97348.97;;;14.63;100.00
19447;BME280;9862;49.462;11.054;2023-03-23T02:59:10;97347.72;;;14.70;100.00
19447;BME280;9862;49.462;11.054;2023-03-23T03:01:51;97359.75;;;14.68;100.00
19447;BME280;9862;49.462;11.054;2023-03-23T03:04:22;97354.16;;;14.74;100.00
19447;BME280;9862;49.462;11.054;2023-03-23T03:07:01;97345.88;;;14.76;100.00
19447;BME280;9862;49.462;11.054;2023-03-23T03:09:40;97349.31;;;14.71;100.00
19447;BME280;9862;49.462;11.054;2023-03-23T03:12:12;97350.44;;;14.75;100.00
19447;BME280;9862;49.462;11.054;2023-03-23T03:14:45;97358.09;;;14.67;100.00
19447;BME280;9862;49.462;11.054;2023-03-23T03:17:20;97345.47;;;14.62;100.00
19447;BME280;9862;49.462;11.054;2023-03-23T03:19:54;97341.69;;;14.58;100.00
19447;BME280;9862;49.462;11.054;2023-03-23T03:22:21;97343.31;;;14.59;100.00
19447;BME280;9862;49.462;11.054;2023-03-23T03:24:49;97331.28;;;14.62;100.00
19447;BME280;9862;49.462;11.054;2023-03-23T03:27:18;97328.34;;;14.63;100.00
19447;BME280;9862;49.462;11.054;2023-03-23T03:29:53;97334.25;;;14.65;100.00
19447;BME280;9862;49.462;11.054;2023-03-23T03:32:22;97336.69;;;14.67;100.00
19447;BME280;9862;49.462;11.054;2023-03-23T03:34:52;97335.56;;;14.63;100.00
19447;BME280;9862;49.462;11.054;2023-03-23T03:37:19;97325.16;;;14.66;100.00
19447;BME280;9862;49.462;11.054;2023-03-23T03:39:46;97327.91;;;14.71;100.00
19447;BME280;9862;49.462;11.054;2023-03-23T03:42:13;97327.09;;;14.71;100.00
19447;BME280;9862;49.462;11.054;2023-03-23T03:44:40;97330.03;;;14.69;100.00
19447;BME280;9862;49.462;11.054;2023-03-23T03:47:06;97327.59;;;14.68;100.00
19447;BME280;9862;49.462;11.054;2023-03-23T03:49:33;97326.72;;;14.62;100.00
19447;BME280;9862;49.462;11.054;2023-03-23T03:52:01;97329.34;;;14.57;100.00
19447;BME280;9862;49.462;11.054;2023-03-23T03:54:28;97328.31;;;14.58;100.00
19447;BME280;9862;49.462;11.054;2023-03-23T03:56:55;97328.31;;;14.58;100.00
19447;BME280;9862;49.462;11.054;2023-03-23T03:59:23;97333.66;;;14.58;100.00
19447;BME280;9862;49.462;11.054;2023-03-23T04:01:51;97327.50;;;14.57;100.00
19447;BME280;9862;49.462;11.054;2023-03-23T04:04:19;97329.91;;;14.59;100.00
19447;BME280;9862;49.462;11.054;2023-03-23T04:06:45;97324.06;;;14.62;100.00
19447;BME280;9862;49.462;11.054;2023-03-23T04:09:15;97331.31;;;14.67;100.00
19447;BME280;9862;49.462;11.054;2023-03-23T04:11:42;97332.25;;;14.77;100.00
19447;BME280;9862;49.462;11.054;2023-03-23T04:14:09;97330.06;;;14.74;100.00
19447;BME280;9862;49.462;11.054;2023-03-23T04:16:35;97331.66;;;14.70;100.00
19447;BME280;9862;49.462;11.054;2023-03-23T04:19:02;97327.34;;;14.69;100.00
19447;BME280;9862;49.462;11.054;2023-03-23T04:21:29;97336.38;;;14.63;100.00
19447;BME280;9862;49.462;11.054;2023-03-23T04:23:56;97333.16;;;14.61;100.00
19447;BME280;9862;49.462;11.054;2023-03-23T04:26:26;97332.00;;;14.57;100.00
19447;BME280;9862;49.462;11.054;2023-03-23T04:28:53;97337.94;;;14.59;100.00
19447;BME280;9862;49.462;11.054;2023-03-23T04:31:20;97336.94;;;14.65;100.00
19447;BME280;9862;49.462;11.054;2023-03-23T04:33:50;97335.28;;;14.59;100.00
19447;BME280;9862;49.462;11.054;2023-03-23T04:36:18;97338.66;;;14.49;100.00
19447;BME280;9862;49.462;11.054;2023-03-23T04:38:45;97327.16;;;14.54;100.00
19447;BME280;9862;49.462;11.054;2023-03-23T04:41:11;97331.97;;;14.52;100.00
19447;BME280;9862;49.462;11.054;2023-03-23T04:43:39;97325.56;;;14.53;100.00
19447;BME280;9862;49.462;11.054;2023-03-23T04:46:08;97336.81;;;14.55;100.00
19447;BME280;9862;49.462;11.054;2023-03-23T04:48:35;97327.13;;;14.49;100.00
19447;BME280;9862;49.462;11.054;2023-03-23T04:51:04;97321.66;;;14.44;100.00
19447;BME280;9862;49.462;11.054;2023-03-23T04:53:31;97330.97;;;14.58;100.00
19447;BME280;9862;49.462;11.054;2023-03-23T04:55:58;97326.06;;;14.50;100.00
19447;BME280;9862;49.462;11.054;2023-03-23T04:58:26;97331.84;;;14.42;100.00
19447;BME280;9862;49.462;11.054;2023-03-23T05:00:54;97339.31;;;14.40;100.00
19447;BME280;9862;49.462;11.054;2023-03-23T05:03:21;97333.69;;;14.41;100.00
19447;BME280;9862;49.462;11.054;2023-03-23T05:05:48;97332.22;;;14.50;100.00
19447;BME280;9862;49.462;11.054;2023-03-23T05:08:17;97335.66;;;14.46;100.00
19447;BME280;9862;49.462;11.054;2023-03-23T05:10:50;97326.88;;;14.50;100.00
19447;BME280;9862;49.462;11.054;2023-03-23T05:13:16;97330.09;;;14.52;100.00
19447;BME280;9862;49.462;11.054;2023-03-23T05:15:43;97321.81;;;14.54;100.00
19447;BME280;9862;49.462;11.054;2023-03-23T05:18:12;97325.41;;;14.43;100.00
19447;BME280;9862;49.462;11.054;2023-03-23T05:20:39;97323.00;;;14.41;100.00
19447;BME280;9862;49.462;11.054;2023-03-23T05:23:07;97326.31;;;14.48;100.00
19447;BME280;9862;49.462;11.054;2023-03-23T05:25:34;97316.97;;;14.51;100.00
19447;BME280;9862;49.462;11.054;2023-03-23T05:28:05;97324.69;;;14.47;100.00
19447;BME280;9862;49.462;11.054;2023-03-23T05:30:32;97317.97;;;14.45;100.00
19447;BME280;9862;49.462;11.054;2023-03-23T05:32:58;97313.97;;;14.47;100.00
19447;BME280;9862;49.462;11.054;2023-03-23T05:35:26;97310.47;;;14.47;100.00
19447;BME280;9862;49.462;11.054;2023-03-23T05:37:53;97317.22;;;14.49;100.00
19447;BME280;9862;49.462;11.054;2023-03-23T05:40:21;97317.47;;;14.48;100.00
19447;BME280;9862;49.462;11.054;2023-03-23T05:42:51;97320.72;;;14.50;100.00
19447;BME280;9862;49.462;11.054;2023-03-23T05:45:18;97320.47;;;14.51;100.00
19447;BME280;9862;49.462;11.054;2023-03-23T05:47:46;97324.47;;;14.49;100.00
19447;BME280;9862;49.462;11.054;2023-03-23T05:50:13;97314.03;;;14.52;100.00
19447;BME280;9862;49.462;11.054;2023-03-23T05:52:41;97302.28;;;14.53;100.00
19447;BME280;9862;49.462;11.054;2023-03-23T05:55:09;97309.56;;;14.58;100.00
19447;BME280;9862;49.462;11.054;2023-03-23T05:57:36;97311.75;;;14.66;100.00
19447;BME280;9862;49.462;11.054;2023-03-23T06:00:03;97307.03;;;14.73;100.00
19447;BME280;9862;49.462;11.054;2023-03-23T06:02:37;97322.47;;;14.66;100.00
19447;BME280;9862;49.462;11.054;2023-03-23T06:05:04;97322.25;;;14.68;100.00
19447;BME280;9862;49.462;11.054;2023-03-23T06:07:30;97312.28;;;14.63;100.00
19447;BME280;9862;49.462;11.054;2023-03-23T06:09:58;97325.66;;;14.63;100.00
19447;BME280;9862;49.462;11.054;2023-03-23T06:12:25;97325.13;;;14.61;100.00
19447;BME280;9862;49.462;11.054;2023-03-23T06:14:52;97328.91;;;14.65;100.00
19447;BME280;9862;49.462;11.054;2023-03-23T06:17:19;97328.91;;;14.65;100.00
19447;BME280;9862;49.462;11.054;2023-03-23T06:19:45;97325.41;;;14.65;100.00
19447;BME280;9862;49.462;11.054;2023-03-23T06:22:14;97322.81;;;14.70;100.00
19447;BME280;9862;49.462;11.054;2023-03-23T06:24:41;97325.78;;;14.73;100.00
19447;BME280;9862;49.462;11.054;2023-03-23T06:27:10;97325.75;;;14.68;100.00
19447;BME280;9862;49.462;11.054;2023-03-23T06:29:37;97323.88;;;14.69;100.00
19447;BME280;9862;49.462;11.054;2023-03-23T06:32:04;97339.13;;;14.68;100.00
19447;BME280;9862;49.462;11.054;2023-03-23T06:34:31;97328.56;;;14.83;100.00
19447;BME280;9862;49.462;11.054;2023-03-23T06:36:58;97337.63;;;14.77;100.00
19447;BME280;9862;49.462;11.054;2023-03-23T06:39:25;97334.97;;;14.82;100.00
19447;BME280;9862;49.462;11.054;2023-03-23T06:41:52;97335.41;;;14.74;100.00
19447;BME280;9862;49.462;11.054;2023-03-23T06:44:20;97346.69;;;14.76;100.00
19447;BME280;9862;49.462;11.054;2023-03-23T06:46:47;97342.38;;;14.75;100.00
19447;BME280;9862;49.462;11.054;2023-03-23T06:49:14;97342.56;;;14.91;100.00
19447;BME280;9862;49.462;11.054;2023-03-23T06:51:40;97338.16;;;14.79;100.00
19447;BME280;9862;49.462;11.054;2023-03-23T06:54:07;97350.59;;;14.91;100.00
19447;BME280;9862;49.462;11.054;2023-03-23T06:56:34;97349.53;;;14.92;100.00
19447;BME280;9862;49.462;11.054;2023-03-23T06:59:01;97343.56;;;14.84;100.00
19447;BME280;9862;49.462;11.054;2023-03-23T07:01:29;97346.31;;;14.89;100.00
19447;BME280;9862;49.462;11.054;2023-03-23T07:03:56;97342.66;;;15.01;100.00
19447;BME280;9862;49.462;11.054;2023-03-23T07:06:23;97350.69;;;15.01;100.00
19447;BME280;9862;49.462;11.054;2023-03-23T07:08:51;97342.72;;;15.06;100.00
19447;BME280;9862;49.462;11.054;2023-03-23T07:11:18;97343.66;;;15.22;100.00
19447;BME280;9862;49.462;11.054;2023-03-23T07:13:45;97341.75;;;15.17;100.00
19447;BME280;9862;49.462;11.054;2023-03-23T07:16:11;97343.00;;;15.41;100.00
19447;BME280;9862;49.462;11.054;2023-03-23T07:18:39;97340.31;;;15.36;100.00
19447;BME280;9862;49.462;11.054;2023-03-23T07:21:06;97354.31;;;15.49;100.00
19447;BME280;9862;49.462;11.054;2023-03-23T07:23:33;97349.56;;;15.56;100.00
19447;BME280;9862;49.462;11.054;2023-03-23T07:26:00;97355.91;;;15.44;100.00
19447;BME280;9862;49.462;11.054;2023-03-23T07:28:28;97362.84;;;15.40;100.00
19447;BME280;9862;49.462;11.054;2023-03-23T07:30:55;97369.19;;;15.29;100.00
19447;BME280;9862;49.462;11.054;2023-03-23T07:33:21;97365.50;;;15.35;100.00
19447;BME280;9862;49.462;11.054;2023-03-23T07:35:49;97364.97;;;15.38;100.00
19447;BME280;9862;49.462;11.054;2023-03-23T07:38:16;97374.47;;;15.19;100.00
19447;BME280;9862;49.462;11.054;2023-03-23T07:40:43;97367.97;;;15.15;100.00
19447;BME280;9862;49.462;11.054;2023-03-23T07:43:10;97375.56;;;15.23;100.00
19447;BME280;9862;49.462;11.054;2023-03-23T07:45:36;97369.81;;;15.41;100.00
19447;BME280;9862;49.462;11.054;2023-03-23T07:48:03;97372.50;;;15.41;100.00
19447;BME280;9862;49.462;11.054;2023-03-23T07:50:30;97368.47;;;15.39;100.00
19447;BME280;9862;49.462;11.054;2023-03-23T07:52:59;97369.31;;;15.44;100.00
19447;BME280;9862;49.462;11.054;2023-03-23T07:55:26;97377.66;;;15.48;100.00
19447;BME280;9862;49.462;11.054;2023-03-23T07:57:54;97368.81;;;15.48;100.00
19447;BME280;9862;49.462;11.054;2023-03-23T08:00:22;97377.38;;;15.44;100.00
19447;BME280;9862;49.462;11.054;2023-03-23T08:02:51;97374.69;;;15.44;100.00
19447;BME280;9862;49.462;11.054;2023-03-23T08:05:19;97377.13;;;15.46;100.00
19447;BME280;9862;49.462;11.054;2023-03-23T08:07:48;97382.56;;;15.56;100.00
19447;BME280;9862;49.462;11.054;2023-03-23T08:10:16;97379.81;;;15.51;100.00
19447;BME280;9862;49.462;11.054;2023-03-23T08:12:44;97383.09;;;15.58;100.00
19447;BME280;9862;49.462;11.054;2023-03-23T08:15:12;97384.34;;;15.45;100.00
19447;BME280;9862;49.462;11.054;2023-03-23T08:17:40;97397.25;;;15.49;100.00
19447;BME280;9862;49.462;11.054;2023-03-23T08:20:08;97400.47;;;15.51;100.00
19447;BME280;9862;49.462;11.054;2023-03-23T08:22:38;97397.31;;;15.59;100.00
19447;BME280;9862;49.462;11.054;2023-03-23T08:25:06;97396.81;;;15.62;100.00
19447;BME280;9862;49.462;11.054;2023-03-23T08:27:35;97407.56;;;15.62;100.00
19447;BME280;9862;49.462;11.054;2023-03-23T08:30:03;97402.41;;;15.55;100.00
19447;BME280;9862;49.462;11.054;2023-03-23T08:32:30;97414.41;;;15.53;100.00
19447;BME280;9862;49.462;11.054;2023-03-23T08:34:57;97406.16;;;15.54;100.00
19447;BME280;9862;49.462;11.054;2023-03-23T08:37:24;97401.38;;;15.61;100.00
19447;BME280;9862;49.462;11.054;2023-03-23T08:39:51;97403.25;;;15.61;100.00
19447;BME280;9862;49.462;11.054;2023-03-23T08:42:18;97396.81;;;15.62;100.00
19447;BME280;9862;49.462;11.054;2023-03-23T08:44:46;97403.41;;;15.76;100.00
19447;BME280;9862;49.462;11.054;2023-03-23T08:47:13;97409.50;;;15.66;100.00
19447;BME280;9862;49.462;11.054;2023-03-23T08:49:40;97411.91;;;15.68;100.00
19447;BME280;9862;49.462;11.054;2023-03-23T08:52:07;97409.28;;;15.73;100.00
19447;BME280;9862;49.462;11.054;2023-03-23T08:54:34;97411.69;;;15.74;100.00
19447;BME280;9862;49.462;11.054;2023-03-23T08:57:01;97412.50;;;15.75;100.00
19447;BME280;9862;49.462;11.054;2023-03-23T08:59:28;97421.97;;;15.83;100.00
19447;BME280;9862;49.462;11.054;2023-03-23T09:01:56;97418.75;;;15.86;100.00
19447;BME280;9862;49.462;11.054;2023-03-23T09:04:23;97420.09;;;15.83;100.00
19447;BME280;9862;49.462;11.054;2023-03-23T09:06:51;97424.34;;;15.79;100.00
19447;BME280;9862;49.462;11.054;2023-03-23T09:09:18;97426.75;;;15.81;100.00
19447;BME280;9862;49.462;11.054;2023-03-23T09:11:44;97425.22;;;15.90;100.00
19447;BME280;9862;49.462;11.054;2023-03-23T09:14:11;97425.00;;;15.96;100.00
19447;BME280;9862;49.462;11.054;2023-03-23T09:16:38;97418.81;;;15.96;100.00
19447;BME280;9862;49.462;11.054;2023-03-23T09:19:06;97430.09;;;15.98;100.00
19447;BME280;9862;49.462;11.054;2023-03-23T09:21:34;97423.72;;;16.04;100.00
19447;BME280;9862;49.462;11.054;2023-03-23T09:24:01;97425.75;;;16.29;100.00
19447;BME280;9862;49.462;11.054;2023-03-23T09:26:28;97431.56;;;16.16;100.00
19447;BME280;9862;49.462;11.054;2023-03-23T09:28:55;97426.31;;;16.31;100.00
19447;BME280;9862;49.462;11.054;2023-03-23T09:31:23;97420.94;;;16.31;100.00
19447;BME280;9862;49.462;11.054;2023-03-23T09:33:51;97427.06;;;16.21;100.00
19447;BME280;9862;49.462;11.054;2023-03-23T09:36:20;97438.56;;;16.17;100.00
19447;BME280;9862;49.462;11.054;2023-03-23T09:38:47;97442.25;;;16.06;100.00
19447;BME280;9862;49.462;11.054;2023-03-23T09:41:31;97446.94;;;16.25;100.00
19447;BME280;9862;49.462;11.054;2023-03-23T09:44:06;97439.97;;;16.29;100.00
19447;BME280;9862;49.462;11.054;2023-03-23T09:46:48;97433.78;;;16.29;100.00
19447;BME280;9862;49.462;11.054;2023-03-23T09:49:19;97439.16;;;16.24;100.00
19447;BME280;9862;49.462;11.054;2023-03-23T09:51:54;97436.53;;;16.34;100.00
19447;BME280;9862;49.462;11.054;2023-03-23T09:54:26;97436.53;;;16.34;100.00
19447;BME280;9862;49.462;11.054;2023-03-23T09:56:54;97439.53;;;16.43;100.00
19447;BME280;9862;49.462;11.054;2023-03-23T09:59:27;97450.78;;;16.40;100.00
19447;BME280;9862;49.462;11.054;2023-03-23T10:01:58;97444.03;;;16.32;100.00
19447;BME280;9862;49.462;11.054;2023-03-23T10:04:31;97452.53;;;16.19;100.00
19447;BME280;9862;49.462;11.054;2023-03-23T10:07:09;97451.97;;;16.17;100.00
19447;BME280;9862;49.462;11.054;2023-03-23T10:09:37;97450.84;;;16.08;100.00
19447;BME280;9862;49.462;11.054;2023-03-23T10:12:10;97463.75;;;16.11;100.00
19447;BME280;9862;49.462;11.054;2023-03-23T10:14:51;97461.78;;;16.01;100.00
19447;BME280;9862;49.462;11.054;2023-03-23T10:17:22;97469.34;;;16.04;100.00
19447;BME280;9862;49.462;11.054;2023-03-23T10:20:10;97474.94;;;15.97;100.00
19447;BME280;9862;49.462;11.054;2023-03-23T10:22:48;97478.16;;;15.99;100.00
19447;BME280;9862;49.462;11.054;2023-03-23T10:25:19;97474.38;;;15.95;100.00
19447;BME280;9862;49.462;11.054;2023-03-23T10:27:52;97479.66;;;15.85;100.00
19447;BME280;9862;49.462;11.054;2023-03-23T10:30:26;97487.63;;;15.75;100.00
19447;BME280;9862;49.462;11.054;2023-03-23T10:32:57;97488.22;;;15.82;100.00
19447;BME280;9862;49.462;11.054;2023-03-23T10:35:28;97490.34;;;15.80;100.00
19447;BME280;9862;49.462;11.054;2023-03-23T10:38:01;97506.44;;;15.80;100.00
19447;BME280;9862;49.462;11.054;2023-03-23T10:40:29;97502.94;;;15.80;100.00
19447;BME280;9862;49.462;11.054;2023-03-23T10:42:57;97493.81;;;15.76;100.00
19447;BME280;9862;49.462;11.054;2023-03-23T10:45:26;97499.91;;;15.71;100.00
19447;BME280;9862;49.462;11.054;2023-03-23T10:47:57;97494.94;;;15.58;100.00
19447;BME280;9862;49.462;11.054;2023-03-23T10:50:27;97489.03;;;15.56;100.00
19447;BME280;9862;49.462;11.054;2023-03-23T10:52:59;97493.25;;;15.52;100.00
19447;BME280;9862;49.462;11.054;2023-03-23T10:55:38;97493.25;;;15.52;100.00
19447;BME280;9862;49.462;11.054;2023-03-23T10:58:08;97502.38;;;15.51;100.00
19447;BME280;9862;49.462;11.054;2023-03-23T11:00:41;97509.25;;;15.41;100.00
19447;BME280;9862;49.462;11.054;2023-03-23T11:03:23;97505.38;;;15.27;100.00
19447;BME280;9862;49.462;11.054;2023-03-23T11:05:53;97515.38;;;15.15;100.00
19447;BME280;9862;49.462;11.054;2023-03-23T11:08:25;97505.97;;;15.12;100.00
19447;BME280;9862;49.462;11.054;2023-03-23T11:10:55;97513.28;;;15.17;100.00
19447;BME280;9862;49.462;11.054;2023-03-23T11:13:30;97507.94;;;15.17;100.00
19447;BME280;9862;49.462;11.054;2023-03-23T11:15:57;97515.53;;;15.25;100.00
19447;BME280;9862;49.462;11.054;2023-03-23T11:18:26;97521.50;;;15.32;100.00
19447;BME280;9862;49.462;11.054;2023-03-23T11:20:57;97527.41;;;15.34;100.00
19447;BME280;9862;49.462;11.054;2023-03-23T11:23:28;97525.06;;;15.38;100.00
19447;BME280;9862;49.462;11.054;2023-03-23T11:26:10;97524.53;;;15.41;100.00
19447;BME280;9862;49.462;11.054;2023-03-23T11:28:43;97512.75;;;15.42;100.00
19447;BME280;9862;49.462;11.054;2023-03-23T11:31:10;97524.50;;;15.36;100.00
19447;BME280;9862;49.462;11.054;2023-03-23T11:33:49;97523.91;;;15.34;100.00
19447;BME280;9862;49.462;11.054;2023-03-23T11:36:17;97524.97;;;15.33;100.00
19447;BME280;9862;49.462;11.054;2023-03-23T11:38:46;97532.97;;;15.28;100.00
19447;BME280;9862;49.462;11.054;2023-03-23T11:41:18;97534.53;;;15.24;100.00
19447;BME280;9862;49.462;11.054;2023-03-23T11:43:46;97528.34;;;15.23;100.00
19447;BME280;9862;49.462;11.054;2023-03-23T11:46:20;97522.50;;;15.26;100.00
19447;BME280;9862;49.462;11.054;2023-03-23T11:48:53;97521.38;;;15.22;100.00
19447;BME280;9862;49.462;11.054;2023-03-23T11:51:27;97519.56;;;15.28;100.00
19447;BME280;9862;49.462;11.054;2023-03-23T11:54:02;97527.91;;;15.31;100.00
19447;BME280;9862;49.462;11.054;2023-03-23T11:56:34;97523.63;;;15.30;100.00
19447;BME280;9862;49.462;11.054;2023-03-23T11:59:02;97518.25;;;15.30;100.00
19447;BME280;9862;49.462;11.054;2023-03-23T12:01:46;97528.16;;;15.30;100.00
19447;BME280;9862;49.462;11.054;2023-03-23T12:04:30;97529.16;;;15.24;100.00
19447;BME280;9862;49.462;11.054;2023-03-23T12:07:10;97523.06;;;15.28;100.00
19447;BME280;9862;49.462;11.054;2023-03-23T12:09:56;97519.97;;;15.41;100.00
19447;BME280;9862;49.462;11.054;2023-03-23T12:12:32;97520.19;;;15.35;100.00
19447;BME280;9862;49.462;11.054;2023-03-23T12:15:09;97523.19;;;15.38;100.00
19447;BME280;9862;49.462;11.054;2023-03-23T12:17:48;97505.31;;;15.49;100.00
19447;BME280;9862;49.462;11.054;2023-03-23T12:20:24;97502.88;;;15.48;100.00
19447;BME280;9862;49.462;11.054;2023-03-23T12:23:05;97504.41;;;15.38;100.00
19447;BME280;9862;49.462;11.054;2023-03-23T12:25:57;97498.88;;;15.50;100.00
19447;BME280;9862;49.462;11.054;2023-03-23T12:28:35;97500.72;;;15.44;100.00
19447;BME280;9862;49.462;11.054;2023-03-23T12:31:11;97498.53;;;15.41;100.00
19447;BME280;9862;49.462;11.054;2023-03-23T12:33:48;97494.41;;;15.56;100.00
19447;BME280;9862;49.462;11.054;2023-03-23T12:36:27;97479.41;;;15.60;100.00
19447;BME280;9862;49.462;11.054;2023-03-23T12:41:50;97502.03;;;15.64;100.00
19447;BME280;9862;49.462;11.054;2023-03-23T12:44:27;97498.75;;;15.62;100.00
19447;BME280;9862;49.462;11.054;2023-03-23T12:47:10;97496.06;;;15.62;100.00
19447;BME280;9862;49.462;11.054;2023-03-23T12:49:44;97490.47;;;15.63;100.00
19447;BME280;9862;49.462;11.054;2023-03-23T12:52:16;97492.69;;;15.71;100.00
19447;BME280;9862;49.462;11.054;2023-03-23T12:54:47;97495.63;;;15.70;100.00
19447;BME280;9862;49.462;11.054;2023-03-23T12:57:24;97506.31;;;15.65;100.00
19447;BME280;9862;49.462;11.054;2023-03-23T13:00:01;97496.13;;;15.67;100.00
19447;BME280;9862;49.462;11.054;2023-03-23T13:02:33;97501.34;;;15.79;100.00
19447;BME280;9862;49.462;11.054;2023-03-23T13:05:06;97495.69;;;15.75;100.00
19447;BME280;9862;49.462;11.054;2023-03-23T13:07:37;97493.63;;;15.87;100.00
19447;BME280;9862;49.462;11.054;2023-03-23T13:10:21;97492.84;;;15.92;100.00